sensor_id;sensor_type;location;lat;lon;timestamp;pressure;altitude;pressure_sealevel;temperature;humidity
46782;BME280;32541;46.298;11.506;2024-02-23T00:01:58;88059.94;;;3.14;100.00
46782;BME280;32541;46.298;11.506;2024-02-23T00:04:23;88065.91;;;3.13;100.00
46782;BME280;32541;46.298;11.506;2024-02-23T00:06:49;88074.03;;;3.03;100.00
46782;BME280;32541;46.298;11.506;2024-02-23T00:09:14;88065.88;;;2.84;100.00
46782;BME280;32541;46.298;11.506;2024-02-23T00:11:42;88064.44;;;2.83;100.00
46782;BME280;32541;46.298;11.506;2024-02-23T00:14:11;88065.91;;;2.94;100.00
46782;BME280;32541;46.298;11.506;2024-02-23T00:16:40;88062.88;;;2.90;100.00
46782;BME280;32541;46.298;11.506;2024-02-23T00:19:09;88067.38;;;2.58;100.00
46782;BME280;32541;46.298;11.506;2024-02-23T00:21:35;88055.28;;;2.78;100.00
46782;BME280;32541;46.298;11.506;2024-02-23T00:24:01;88060.41;;;2.74;100.00
46782;BME280;32541;46.298;11.506;2024-02-23T00:26:26;88060.00;;;2.78;100.00
46782;BME280;32541;46.298;11.506;2024-02-23T00:28:54;88051.97;;;2.80;100.00
46782;BME280;32541;46.298;11.506;2024-02-23T00:31:19;88060.03;;;2.88;100.00
46782;BME280;32541;46.298;11.506;2024-02-23T00:33:44;88048.72;;;2.91;100.00
46782;BME280;32541;46.298;11.506;2024-02-23T00:36:10;88043.44;;;2.93;100.00
46782;BME280;32541;46.298;11.506;2024-02-23T00:38:35;88037.31;;;2.93;100.00
46782;BME280;32541;46.298;11.506;2024-02-23T00:41:01;88038.84;;;2.86;100.00
46782;BME280;32541;46.298;11.506;2024-02-23T00:43:26;88035.84;;;2.72;100.00
46782;BME280;32541;46.298;11.506;2024-02-23T00:45:54;88036.25;;;2.69;100.00
46782;BME280;32541;46.298;11.506;2024-02-23T00:48:19;88037.84;;;2.72;100.00
46782;BME280;32541;46.298;11.506;2024-02-23T00:50:45;88032.00;;;2.85;100.00
46782;BME280;32541;46.298;11.506;2024-02-23T00:53:10;88027.16;;;2.84;100.00
46782;BME280;32541;46.298;11.506;2024-02-23T00:55:35;88016.84;;;2.72;100.00
46782;BME280;32541;46.298;11.506;2024-02-23T00:58:01;88011.00;;;2.76;100.00
46782;BME280;32541;46.298;11.506;2024-02-23T01:00:27;88022.28;;;2.82;100.00
46782;BME280;32541;46.298;11.506;2024-02-23T01:02:52;88021.88;;;2.95;100.00
46782;BME280;32541;46.298;11.506;2024-02-23T01:05:18;88021.19;;;3.04;100.00
46782;BME280;32541;46.298;11.506;2024-02-23T01:07:43;88016.59;;;2.97;100.00
46782;BME280;32541;46.298;11.506;2024-02-23T01:10:09;88005.88;;;2.90;100.00
46782;BME280;32541;46.298;11.506;2024-02-23T01:12:35;88007.44;;;2.93;100.00
46782;BME280;32541;46.298;11.506;2024-02-23T01:15:00;88006.84;;;2.75;100.00
46782;BME280;32541;46.298;11.506;2024-02-23T01:17:26;87997.44;;;2.76;100.00
46782;BME280;32541;46.298;11.506;2024-02-23T01:19:51;87985.28;;;2.77;100.00
46782;BME280;32541;46.298;11.506;2024-02-23T01:22:17;87973.69;;;2.76;100.00
46782;BME280;32541;46.298;11.506;2024-02-23T01:24:42;87964.44;;;2.89;100.00
46782;BME280;32541;46.298;11.506;2024-02-23T01:27:08;87957.88;;;2.92;100.00
46782;BME280;32541;46.298;11.506;2024-02-23T01:29:33;87952.44;;;2.92;100.00
46782;BME280;32541;46.298;11.506;2024-02-23T01:31:59;87947.13;;;2.94;100.00
46782;BME280;32541;46.298;11.506;2024-02-23T01:34:25;87947.72;;;3.02;100.00
46782;BME280;32541;46.298;11.506;2024-02-23T01:36:50;87945.44;;;2.89;100.00
46782;BME280;32541;46.298;11.506;2024-02-23T01:39:16;87930.56;;;2.71;100.00
46782;BME280;32541;46.298;11.506;2024-02-23T01:41:41;87934.44;;;2.77;100.00
46782;BME280;32541;46.298;11.506;2024-02-23T01:44:09;87936.56;;;2.89;100.00
46782;BME280;32541;46.298;11.506;2024-02-23T01:46:34;87925.56;;;2.87;100.00
46782;BME280;32541;46.298;11.506;2024-02-23T01:49:00;87910.84;;;2.80;100.00
46782;BME280;32541;46.298;11.506;2024-02-23T01:51:26;87904.28;;;2.83;100.00
46782;BME280;32541;46.298;11.506;2024-02-23T01:53:51;87904.56;;;2.87;100.00
46782;BME280;32541;46.298;11.506;2024-02-23T01:56:17;87901.56;;;2.83;100.00
46782;BME280;32541;46.298;11.506;2024-02-23T01:58:46;87898.84;;;2.83;100.00
46782;BME280;32541;46.298;11.506;2024-02-23T02:01:11;87886.59;;;2.82;100.00
46782;BME280;32541;46.298;11.506;2024-02-23T02:03:40;87899.00;;;2.95;100.00
46782;BME280;32541;46.298;11.506;2024-02-23T02:06:05;87889.44;;;2.84;100.00
46782;BME280;32541;46.298;11.506;2024-02-23T02:08:33;87881.44;;;2.86;100.00
46782;BME280;32541;46.298;11.506;2024-02-23T02:10:58;87885.72;;;2.70;100.00
46782;BME280;32541;46.298;11.506;2024-02-23T02:13:24;87893.00;;;2.87;100.00
46782;BME280;32541;46.298;11.506;2024-02-23T02:15:49;87883.88;;;2.72;100.00
46782;BME280;32541;46.298;11.506;2024-02-23T02:18:14;87878.31;;;2.61;100.00
46782;BME280;32541;46.298;11.506;2024-02-23T02:21:02;87885.16;;;2.52;100.00
46782;BME280;32541;46.298;11.506;2024-02-23T02:23:27;87888.56;;;2.72;100.00
46782;BME280;32541;46.298;11.506;2024-02-23T02:25:54;87886.56;;;2.63;100.00
46782;BME280;32541;46.298;11.506;2024-02-23T02:28:19;87882.84;;;2.68;100.00
46782;BME280;32541;46.298;11.506;2024-02-23T02:30:44;87886.00;;;2.74;100.00
46782;BME280;32541;46.298;11.506;2024-02-23T02:33:10;87869.44;;;2.51;100.00
46782;BME280;32541;46.298;11.506;2024-02-23T02:35:35;87854.88;;;2.46;100.00
46782;BME280;32541;46.298;11.506;2024-02-23T02:38:01;87853.03;;;2.49;100.00
46782;BME280;32541;46.298;11.506;2024-02-23T02:40:26;87855.72;;;2.49;100.00
46782;BME280;32541;46.298;11.506;2024-02-23T02:42:51;87851.16;;;2.51;100.00
46782;BME280;32541;46.298;11.506;2024-02-23T02:45:17;87855.16;;;2.50;100.00
46782;BME280;32541;46.298;11.506;2024-02-23T02:47:42;87848.16;;;2.47;100.00
46782;BME280;32541;46.298;11.506;2024-02-23T02:50:08;87845.88;;;2.53;100.00
46782;BME280;32541;46.298;11.506;2024-02-23T02:52:34;87838.75;;;2.48;100.00
46782;BME280;32541;46.298;11.506;2024-02-23T02:54:59;87840.00;;;2.47;100.00
46782;BME280;32541;46.298;11.506;2024-02-23T02:57:25;87834.16;;;2.51;100.00
46782;BME280;32541;46.298;11.506;2024-02-23T02:59:50;87824.88;;;2.35;100.00
46782;BME280;32541;46.298;11.506;2024-02-23T03:02:15;87826.88;;;2.53;100.00
46782;BME280;32541;46.298;11.506;2024-02-23T03:04:48;87820.44;;;2.30;100.00
46782;BME280;32541;46.298;11.506;2024-02-23T03:07:14;87818.59;;;2.32;100.00
46782;BME280;32541;46.298;11.506;2024-02-23T03:09:39;87817.03;;;2.39;100.00
46782;BME280;32541;46.298;11.506;2024-02-23T03:12:05;87805.75;;;2.42;100.00
46782;BME280;32541;46.298;11.506;2024-02-23T03:14:30;87808.75;;;2.46;100.00
46782;BME280;32541;46.298;11.506;2024-02-23T03:16:55;87812.88;;;2.57;100.00
46782;BME280;32541;46.298;11.506;2024-02-23T03:19:20;87807.47;;;2.66;100.00
46782;BME280;32541;46.298;11.506;2024-02-23T03:21:48;87806.03;;;2.56;100.00
46782;BME280;32541;46.298;11.506;2024-02-23T03:24:13;87810.31;;;2.59;100.00
46782;BME280;32541;46.298;11.506;2024-02-23T03:26:39;87803.19;;;2.54;100.00
46782;BME280;32541;46.298;11.506;2024-02-23T03:29:04;87811.31;;;2.54;100.00
46782;BME280;32541;46.298;11.506;2024-02-23T03:31:29;87803.19;;;2.54;100.00
46782;BME280;32541;46.298;11.506;2024-02-23T03:33:55;87803.59;;;2.41;100.00
46782;BME280;32541;46.298;11.506;2024-02-23T03:36:20;87794.91;;;2.52;100.00
46782;BME280;32541;46.298;11.506;2024-02-23T03:38:47;87794.31;;;2.44;100.00
46782;BME280;32541;46.298;11.506;2024-02-23T03:41:13;87794.06;;;2.49;100.00
46782;BME280;32541;46.298;11.506;2024-02-23T03:43:38;87790.75;;;2.51;100.00
46782;BME280;32541;46.298;11.506;2024-02-23T03:46:06;87786.78;;;2.33;100.00
46782;BME280;32541;46.298;11.506;2024-02-23T03:48:31;87781.78;;;2.19;100.00
46782;BME280;32541;46.298;11.506;2024-02-23T03:50:57;87768.22;;;2.19;100.00
46782;BME280;32541;46.298;11.506;2024-02-23T03:53:23;87766.09;;;2.18;100.00
46782;BME280;32541;46.298;11.506;2024-02-23T03:55:48;87762.63;;;2.08;100.00
46782;BME280;32541;46.298;11.506;2024-02-23T03:58:13;87757.53;;;2.21;100.00
46782;BME280;32541;46.298;11.506;2024-02-23T04:00:39;87744.69;;;2.22;100.00
46782;BME280;32541;46.298;11.506;2024-02-23T04:03:04;87757.66;;;2.23;100.00
46782;BME280;32541;46.298;11.506;2024-02-23T04:05:29;87743.53;;;2.06;100.00
46782;BME280;32541;46.298;11.506;2024-02-23T04:07:55;87745.69;;;1.98;100.00
46782;BME280;32541;46.298;11.506;2024-02-23T04:10:20;87746.13;;;2.13;100.00
46782;BME280;32541;46.298;11.506;2024-02-23T04:12:48;87742.09;;;2.14;100.00
46782;BME280;32541;46.298;11.506;2024-02-23T04:15:14;87736.84;;;2.07;100.00
46782;BME280;32541;46.298;11.506;2024-02-23T04:17:39;87734.97;;;2.09;100.00
46782;BME280;32541;46.298;11.506;2024-02-23T04:20:08;87733.00;;;2.19;100.00
46782;BME280;32541;46.298;11.506;2024-02-23T04:22:37;87723.81;;;2.44;100.00
46782;BME280;32541;46.298;11.506;2024-02-23T04:25:02;87718.53;;;2.36;100.00
46782;BME280;32541;46.298;11.506;2024-02-23T04:27:28;87724.69;;;2.17;100.00
46782;BME280;32541;46.298;11.506;2024-02-23T04:29:53;87725.69;;;2.03;100.00
46782;BME280;32541;46.298;11.506;2024-02-23T04:32:19;87725.69;;;2.12;100.00
46782;BME280;32541;46.298;11.506;2024-02-23T04:34:44;87729.56;;;2.00;100.00
46782;BME280;32541;46.298;11.506;2024-02-23T04:37:09;87732.41;;;2.02;100.00
46782;BME280;32541;46.298;11.506;2024-02-23T04:39:35;87735.13;;;2.11;100.00
46782;BME280;32541;46.298;11.506;2024-02-23T04:42:00;87738.66;;;2.14;100.00
46782;BME280;32541;46.298;11.506;2024-02-23T04:44:25;87739.69;;;2.09;100.00
46782;BME280;32541;46.298;11.506;2024-02-23T04:46:50;87742.69;;;2.22;100.00
46782;BME280;32541;46.298;11.506;2024-02-23T04:49:16;87750.97;;;2.24;100.00
46782;BME280;32541;46.298;11.506;2024-02-23T04:51:41;87746.38;;;2.27;100.00
46782;BME280;32541;46.298;11.506;2024-02-23T04:54:06;87742.69;;;2.22;100.00
46782;BME280;32541;46.298;11.506;2024-02-23T04:56:32;87742.53;;;2.20;100.00
46782;BME280;32541;46.298;11.506;2024-02-23T04:58:58;87737.53;;;2.17;100.00
46782;BME280;32541;46.298;11.506;2024-02-23T05:01:24;87738.41;;;2.19;100.00
46782;BME280;32541;46.298;11.506;2024-02-23T05:03:49;87733.13;;;2.21;100.00
46782;BME280;32541;46.298;11.506;2024-02-23T05:06:15;87728.13;;;2.18;100.00
46782;BME280;32541;46.298;11.506;2024-02-23T05:08:40;87714.13;;;2.21;100.00
46782;BME280;32541;46.298;11.506;2024-02-23T05:11:06;87713.56;;;2.33;100.00
46782;BME280;32541;46.298;11.506;2024-02-23T05:13:31;87703.00;;;2.27;100.00
46782;BME280;32541;46.298;11.506;2024-02-23T05:15:57;87693.56;;;2.38;100.00
46782;BME280;32541;46.298;11.506;2024-02-23T05:18:22;87682.91;;;1.82;100.00
46782;BME280;32541;46.298;11.506;2024-02-23T05:20:48;87676.63;;;1.80;100.00
46782;BME280;32541;46.298;11.506;2024-02-23T05:23:14;87673.06;;;1.58;100.00
46782;BME280;32541;46.298;11.506;2024-02-23T05:25:43;87664.22;;;1.67;100.00
46782;BME280;32541;46.298;11.506;2024-02-23T05:28:08;87671.09;;;1.68;100.00
46782;BME280;32541;46.298;11.506;2024-02-23T05:30:34;87661.97;;;1.54;100.00
46782;BME280;32541;46.298;11.506;2024-02-23T05:32:59;87656.53;;;1.54;100.00
46782;BME280;32541;46.298;11.506;2024-02-23T05:35:27;87672.78;;;1.73;100.00
46782;BME280;32541;46.298;11.506;2024-02-23T05:37:52;87686.47;;;1.65;100.00
46782;BME280;32541;46.298;11.506;2024-02-23T05:40:18;87695.59;;;1.51;100.00
46782;BME280;32541;46.298;11.506;2024-02-23T05:42:43;87678.34;;;1.65;100.00
46782;BME280;32541;46.298;11.506;2024-02-23T05:45:09;87683.50;;;1.71;100.00
46782;BME280;32541;46.298;11.506;2024-02-23T05:47:38;87677.34;;;1.80;100.00
46782;BME280;32541;46.298;11.506;2024-02-23T05:50:08;87681.47;;;1.91;100.00
46782;BME280;32541;46.298;11.506;2024-02-23T05:52:35;87677.34;;;1.80;100.00
46782;BME280;32541;46.298;11.506;2024-02-23T05:55:02;87673.34;;;1.81;100.00
46782;BME280;32541;46.298;11.506;2024-02-23T05:57:29;87685.03;;;1.64;100.00
46782;BME280;32541;46.298;11.506;2024-02-23T05:59:54;87674.06;;;1.62;100.00
46782;BME280;32541;46.298;11.506;2024-02-23T06:02:23;87688.78;;;1.69;100.00
46782;BME280;32541;46.298;11.506;2024-02-23T06:04:48;87699.13;;;1.25;100.00
46782;BME280;32541;46.298;11.506;2024-02-23T06:07:14;87700.72;;;1.47;100.00
46782;BME280;32541;46.298;11.506;2024-02-23T06:09:43;87700.84;;;1.39;100.00
46782;BME280;32541;46.298;11.506;2024-02-23T06:12:08;87698.41;;;1.34;100.00
46782;BME280;32541;46.298;11.506;2024-02-23T06:14:35;87692.97;;;1.34;100.00
46782;BME280;32541;46.298;11.506;2024-02-23T06:17:01;87698.00;;;1.47;100.00
46782;BME280;32541;46.298;11.506;2024-02-23T06:19:26;87699.91;;;1.08;100.00
46782;BME280;32541;46.298;11.506;2024-02-23T06:21:51;87681.09;;;1.00;100.00
46782;BME280;32541;46.298;11.506;2024-02-23T06:24:17;87694.63;;;1.00;100.00
46782;BME280;32541;46.298;11.506;2024-02-23T06:26:43;87687.53;;;1.15;100.00
46782;BME280;32541;46.298;11.506;2024-02-23T06:29:10;87689.97;;;1.20;100.00
46782;BME280;32541;46.298;11.506;2024-02-23T06:31:38;87696.97;;;0.77;100.00
46782;BME280;32541;46.298;11.506;2024-02-23T06:34:04;87687.13;;;0.72;100.00
46782;BME280;32541;46.298;11.506;2024-02-23T06:36:29;87702.41;;;0.77;100.00
46782;BME280;32541;46.298;11.506;2024-02-23T06:38:55;87703.88;;;0.61;100.00
46782;BME280;32541;46.298;11.506;2024-02-23T06:41:20;87705.72;;;0.59;100.00
46782;BME280;32541;46.298;11.506;2024-02-23T06:43:46;87716.22;;;0.54;100.00
46782;BME280;32541;46.298;11.506;2024-02-23T06:46:11;87713.16;;;0.68;100.00
46782;BME280;32541;46.298;11.506;2024-02-23T06:48:37;87701.63;;;0.67;100.00
46782;BME280;32541;46.298;11.506;2024-02-23T06:51:04;87685.41;;;0.67;100.00
46782;BME280;32541;46.298;11.506;2024-02-23T06:53:30;87703.22;;;0.70;100.00
46782;BME280;32541;46.298;11.506;2024-02-23T06:55:55;87702.56;;;0.89;100.00
46782;BME280;32541;46.298;11.506;2024-02-23T06:58:20;87689.56;;;0.78;100.00
46782;BME280;32541;46.298;11.506;2024-02-23T07:00:46;87700.69;;;0.82;100.00
46782;BME280;32541;46.298;11.506;2024-02-23T07:03:12;87680.03;;;0.86;100.00
46782;BME280;32541;46.298;11.506;2024-02-23T07:05:37;87692.16;;;0.85;100.00
46782;BME280;32541;46.298;11.506;2024-02-23T07:08:03;87692.63;;;0.91;100.00
46782;BME280;32541;46.298;11.506;2024-02-23T07:10:28;87692.81;;;0.67;100.00
46782;BME280;32541;46.298;11.506;2024-02-23T07:12:53;87694.31;;;0.50;100.00
46782;BME280;32541;46.298;11.506;2024-02-23T07:15:21;87695.22;;;0.36;100.00
46782;BME280;32541;46.298;11.506;2024-02-23T07:17:46;87698.06;;;0.65;100.00
46782;BME280;32541;46.298;11.506;2024-02-23T07:20:13;87711.88;;;0.42;100.00
46782;BME280;32541;46.298;11.506;2024-02-23T07:22:38;87713.91;;;0.41;100.00
46782;BME280;32541;46.298;11.506;2024-02-23T07:25:05;87717.47;;;0.44;100.00
46782;BME280;32541;46.298;11.506;2024-02-23T07:27:30;87721.50;;;0.26;100.00
46782;BME280;32541;46.298;11.506;2024-02-23T07:29:57;87710.81;;;0.28;100.00
46782;BME280;32541;46.298;11.506;2024-02-23T07:32:22;87696.66;;;0.37;100.00
46782;BME280;32541;46.298;11.506;2024-02-23T07:34:48;87699.09;;;0.42;100.00
46782;BME280;32541;46.298;11.506;2024-02-23T07:37:14;87686.88;;;0.51;100.00
46782;BME280;32541;46.298;11.506;2024-02-23T07:39:40;87703.16;;;0.61;100.00
46782;BME280;32541;46.298;11.506;2024-02-23T07:42:05;87706.50;;;0.78;100.00
46782;BME280;32541;46.298;11.506;2024-02-23T07:44:31;87692.38;;;0.70;100.00
46782;BME280;32541;46.298;11.506;2024-02-23T07:46:57;87694.88;;;0.85;100.00
46782;BME280;32541;46.298;11.506;2024-02-23T07:49:24;87682.19;;;0.88;100.00
46782;BME280;32541;46.298;11.506;2024-02-23T07:51:50;87675.22;;;0.85;100.00
46782;BME280;32541;46.298;11.506;2024-02-23T07:54:15;87677.34;;;0.86;100.00
46782;BME280;32541;46.298;11.506;2024-02-23T07:56:41;87658.72;;;0.90;100.00
46782;BME280;32541;46.298;11.506;2024-02-23T07:59:06;87641.63;;;0.88;100.00
46782;BME280;32541;46.298;11.506;2024-02-23T08:01:32;87646.03;;;0.93;100.00
46782;BME280;32541;46.298;11.506;2024-02-23T08:03:57;87644.06;;;0.93;100.00
46782;BME280;32541;46.298;11.506;2024-02-23T08:06:22;87647.78;;;0.98;100.00
46782;BME280;32541;46.298;11.506;2024-02-23T08:08:48;87641.28;;;0.65;100.00
46782;BME280;32541;46.298;11.506;2024-02-23T08:11:13;87636.16;;;0.69;100.00
46782;BME280;32541;46.298;11.506;2024-02-23T08:13:39;87621.94;;;0.78;100.00
46782;BME280;32541;46.298;11.506;2024-02-23T08:16:06;87631.78;;;0.92;100.00
46782;BME280;32541;46.298;11.506;2024-02-23T08:18:31;87617.56;;;1.01;100.00
46782;BME280;32541;46.298;11.506;2024-02-23T08:20:58;87618.72;;;0.98;100.00
46782;BME280;32541;46.298;11.506;2024-02-23T08:23:23;87623.53;;;0.90;100.00
46782;BME280;32541;46.298;11.506;2024-02-23T08:25:49;87619.97;;;0.88;100.00
46782;BME280;32541;46.298;11.506;2024-02-23T08:28:16;87620.97;;;0.92;100.00
46782;BME280;32541;46.298;11.506;2024-02-23T08:30:41;87631.97;;;0.94;100.00
46782;BME280;32541;46.298;11.506;2024-02-23T08:33:06;87637.44;;;0.68;100.00
46782;BME280;32541;46.298;11.506;2024-02-23T08:35:35;87615.19;;;0.60;100.00
46782;BME280;32541;46.298;11.506;2024-02-23T08:38:00;87624.59;;;0.59;100.00
46782;BME280;32541;46.298;11.506;2024-02-23T08:40:26;87614.94;;;0.65;100.00
46782;BME280;32541;46.298;11.506;2024-02-23T08:42:51;87628.16;;;0.61;100.00
46782;BME280;32541;46.298;11.506;2024-02-23T08:45:17;87623.06;;;0.65;100.00
46782;BME280;32541;46.298;11.506;2024-02-23T08:47:42;87614.09;;;0.72;100.00
46782;BME280;32541;46.298;11.506;2024-02-23T08:50:08;87619.81;;;0.76;100.00
46782;BME280;32541;46.298;11.506;2024-02-23T08:52:33;87614.13;;;0.82;100.00
46782;BME280;32541;46.298;11.506;2024-02-23T08:54:58;87613.84;;;0.87;100.00
46782;BME280;32541;46.298;11.506;2024-02-23T08:57:25;87617.72;;;0.94;100.00
46782;BME280;32541;46.298;11.506;2024-02-23T08:59:51;87625.13;;;0.93;100.00
46782;BME280;32541;46.298;11.506;2024-02-23T09:02:17;87608.59;;;0.99;100.00
46782;BME280;32541;46.298;11.506;2024-02-23T09:04:42;87617.47;;;1.09;100.00
46782;BME280;32541;46.298;11.506;2024-02-23T09:07:10;87622.03;;;1.26;100.00
46782;BME280;32541;46.298;11.506;2024-02-23T09:09:36;87622.41;;;0.93;100.00
46782;BME280;32541;46.298;11.506;2024-02-23T09:12:01;87626.69;;;0.96;100.00
46782;BME280;32541;46.298;11.506;2024-02-23T09:14:26;87631.25;;;1.03;100.00
46782;BME280;32541;46.298;11.506;2024-02-23T09:16:52;87633.22;;;0.93;100.00
46782;BME280;32541;46.298;11.506;2024-02-23T09:19:18;87640.72;;;0.76;100.00
46782;BME280;32541;46.298;11.506;2024-02-23T09:21:44;87635.63;;;0.89;100.00
46782;BME280;32541;46.298;11.506;2024-02-23T09:24:10;87632.78;;;0.87;100.00
46782;BME280;32541;46.298;11.506;2024-02-23T09:26:35;87643.78;;;0.99;100.00
46782;BME280;32541;46.298;11.506;2024-02-23T09:29:00;87643.56;;;0.68;100.00
46782;BME280;32541;46.298;11.506;2024-02-23T09:31:26;87646.97;;;0.32;100.00
46782;BME280;32541;46.298;11.506;2024-02-23T09:33:56;87638.97;;;0.61;100.00
46782;BME280;32541;46.298;11.506;2024-02-23T09:36:22;87632.03;;;0.68;100.00
46782;BME280;32541;46.298;11.506;2024-02-23T09:38:48;87627.34;;;0.78;100.00
46782;BME280;32541;46.298;11.506;2024-02-23T09:41:21;87633.50;;;0.88;100.00
46782;BME280;32541;46.298;11.506;2024-02-23T09:43:48;87627.25;;;0.85;100.00
46782;BME280;32541;46.298;11.506;2024-02-23T09:46:15;87626.38;;;0.83;100.00
46782;BME280;32541;46.298;11.506;2024-02-23T09:48:44;87629.47;;;0.70;100.00
46782;BME280;32541;46.298;11.506;2024-02-23T09:51:11;87629.47;;;0.70;100.00
46782;BME280;32541;46.298;11.506;2024-02-23T09:53:38;87636.06;;;0.86;100.00
46782;BME280;32541;46.298;11.506;2024-02-23T09:56:04;87635.19;;;0.83;100.00
46782;BME280;32541;46.298;11.506;2024-02-23T09:58:32;87637.66;;;0.98;100.00
46782;BME280;32541;46.298;11.506;2024-02-23T10:00:58;87638.25;;;1.06;100.00
46782;BME280;32541;46.298;11.506;2024-02-23T10:03:27;87632.84;;;1.26;100.00
46782;BME280;32541;46.298;11.506;2024-02-23T10:05:55;87633.28;;;1.13;100.00
46782;BME280;32541;46.298;11.506;2024-02-23T10:08:21;87636.25;;;1.17;100.00
46782;BME280;32541;46.298;11.506;2024-02-23T10:10:46;87637.81;;;1.00;100.00
46782;BME280;32541;46.298;11.506;2024-02-23T10:13:12;87627.00;;;1.00;100.00
46782;BME280;32541;46.298;11.506;2024-02-23T10:15:37;87622.09;;;0.80;100.00
46782;BME280;32541;46.298;11.506;2024-02-23T10:18:04;87615.22;;;0.69;100.00
46782;BME280;32541;46.298;11.506;2024-02-23T10:20:30;87620.25;;;0.82;100.00
46782;BME280;32541;46.298;11.506;2024-02-23T10:22:56;87625.41;;;0.97;100.00
46782;BME280;32541;46.298;11.506;2024-02-23T10:25:22;87615.47;;;1.09;100.00
46782;BME280;32541;46.298;11.506;2024-02-23T10:27:47;87622.31;;;1.20;100.00
46782;BME280;32541;46.298;11.506;2024-02-23T10:30:13;87620.63;;;1.25;100.00
46782;BME280;32541;46.298;11.506;2024-02-23T10:32:41;87613.75;;;1.24;100.00
46782;BME280;32541;46.298;11.506;2024-02-23T10:35:11;87616.91;;;1.30;100.00
46782;BME280;32541;46.298;11.506;2024-02-23T10:37:38;87627.16;;;1.41;100.00
46782;BME280;32541;46.298;11.506;2024-02-23T10:40:06;87624.88;;;1.37;100.00
46782;BME280;32541;46.298;11.506;2024-02-23T10:42:36;87628.75;;;1.53;100.00
46782;BME280;32541;46.298;11.506;2024-02-23T10:45:05;87636.88;;;1.53;100.00
46782;BME280;32541;46.298;11.506;2024-02-23T10:47:31;87632.03;;;1.42;100.00
46782;BME280;32541;46.298;11.506;2024-02-23T10:50:00;87634.56;;;1.50;100.00
46782;BME280;32541;46.298;11.506;2024-02-23T10:52:26;87639.69;;;1.46;100.00
46782;BME280;32541;46.298;11.506;2024-02-23T10:54:52;87640.13;;;1.23;100.00
46782;BME280;32541;46.298;11.506;2024-02-23T10:57:18;87634.53;;;1.11;100.00
46782;BME280;32541;46.298;11.506;2024-02-23T10:59:47;87651.78;;;1.16;100.00
46782;BME280;32541;46.298;11.506;2024-02-23T11:02:14;87637.84;;;1.29;100.00
46782;BME280;32541;46.298;11.506;2024-02-23T11:04:47;87640.13;;;1.52;100.00
46782;BME280;32541;46.298;11.506;2024-02-23T11:07:21;87637.56;;;1.63;100.00
46782;BME280;32541;46.298;11.506;2024-02-23T11:09:54;87635.00;;;1.65;100.00
46782;BME280;32541;46.298;11.506;2024-02-23T11:12:28;87633.16;;;1.78;100.00
46782;BME280;32541;46.298;11.506;2024-02-23T11:14:58;87636.41;;;2.05;100.00
46782;BME280;32541;46.298;11.506;2024-02-23T11:17:29;87616.44;;;1.81;100.00
46782;BME280;32541;46.298;11.506;2024-02-23T11:19:55;87612.88;;;1.88;100.00
46782;BME280;32541;46.298;11.506;2024-02-23T11:22:31;87604.66;;;1.48;100.00
46782;BME280;32541;46.298;11.506;2024-02-23T11:25:05;87601.38;;;1.68;100.00
46782;BME280;32541;46.298;11.506;2024-02-23T11:27:38;87617.06;;;1.41;100.00
46782;BME280;32541;46.298;11.506;2024-02-23T11:30:08;87598.81;;;1.51;100.00
46782;BME280;32541;46.298;11.506;2024-02-23T11:32:40;87593.25;;;1.68;100.00
46782;BME280;32541;46.298;11.506;2024-02-23T11:35:07;87587.63;;;1.95;100.00
46782;BME280;32541;46.298;11.506;2024-02-23T11:37:44;87586.00;;;2.11;100.00
46782;BME280;32541;46.298;11.506;2024-02-23T11:40:12;87595.88;;;2.16;100.00
46782;BME280;32541;46.298;11.506;2024-02-23T11:42:40;87588.88;;;2.13;100.00
46782;BME280;32541;46.298;11.506;2024-02-23T11:45:07;87586.44;;;2.08;100.00
46782;BME280;32541;46.298;11.506;2024-02-23T11:47:32;87589.31;;;2.10;100.00
46782;BME280;32541;46.298;11.506;2024-02-23T11:49:58;87583.28;;;2.21;100.00
46782;BME280;32541;46.298;11.506;2024-02-23T11:52:23;87578.69;;;2.23;100.00
46782;BME280;32541;46.298;11.506;2024-02-23T11:54:48;87576.00;;;2.23;100.00
46782;BME280;32541;46.298;11.506;2024-02-23T11:57:14;87586.78;;;2.43;100.00
46782;BME280;32541;46.298;11.506;2024-02-23T11:59:40;87583.13;;;2.29;100.00
46782;BME280;32541;46.298;11.506;2024-02-23T12:02:06;87575.88;;;2.21;100.00
46782;BME280;32541;46.298;11.506;2024-02-23T12:04:32;87580.03;;;2.13;100.00
46782;BME280;32541;46.298;11.506;2024-02-23T12:06:58;87579.44;;;2.14;100.00
46782;BME280;32541;46.298;11.506;2024-02-23T12:09:24;87566.19;;;2.09;100.00
46782;BME280;32541;46.298;11.506;2024-02-23T12:11:49;87568.13;;;2.28;100.00
46782;BME280;32541;46.298;11.506;2024-02-23T12:14:15;87557.44;;;1.60;100.00
46782;BME280;32541;46.298;11.506;2024-02-23T12:16:41;87566.47;;;1.25;100.00
46782;BME280;32541;46.298;11.506;2024-02-23T12:19:08;87572.00;;;1.17;100.00
46782;BME280;32541;46.298;11.506;2024-02-23T12:21:36;87570.31;;;1.22;100.00
46782;BME280;32541;46.298;11.506;2024-02-23T12:24:04;87567.63;;;1.22;100.00
46782;BME280;32541;46.298;11.506;2024-02-23T12:26:33;87563.59;;;1.13;100.00
46782;BME280;32541;46.298;11.506;2024-02-23T12:29:02;87569.56;;;0.92;100.00
46782;BME280;32541;46.298;11.506;2024-02-23T12:31:28;87572.13;;;0.90;100.00
46782;BME280;32541;46.298;11.506;2024-02-23T12:33:54;87565.75;;;1.05;100.00
46782;BME280;32541;46.298;11.506;2024-02-23T12:36:22;87566.59;;;1.17;100.00
46782;BME280;32541;46.298;11.506;2024-02-23T12:38:48;87549.66;;;1.26;100.00
46782;BME280;32541;46.298;11.506;2024-02-23T12:41:13;87538.81;;;1.36;100.00
46782;BME280;32541;46.298;11.506;2024-02-23T12:43:39;87539.66;;;1.48;100.00
46782;BME280;32541;46.298;11.506;2024-02-23T12:46:04;87539.06;;;1.59;100.00